sensor_id;sensor_type;location;lat;lon;timestamp;temperature;humidity
5086;DHT22;4715;51.660;7.082;2022-11-15T00:00:40;9.90;99.90
5086;DHT22;4715;51.660;7.082;2022-11-15T00:03:02;9.90;99.90
5086;DHT22;4715;51.660;7.082;2022-11-15T00:05:24;9.90;99.90
5086;DHT22;4715;51.660;7.082;2022-11-15T00:07:47;9.90;99.90
5086;DHT22;4715;51.660;7.082;2022-11-15T00:10:09;9.90;99.90
5086;DHT22;4715;51.660;7.082;2022-11-15T00:12:31;9.90;99.90
5086;DHT22;4715;51.660;7.082;2022-11-15T00:14:53;10.00;99.90
5086;DHT22;4715;51.660;7.082;2022-11-15T00:17:15;10.00;99.90
5086;DHT22;4715;51.660;7.082;2022-11-15T00:19:37;10.00;99.90
5086;DHT22;4715;51.660;7.082;2022-11-15T00:21:59;10.00;99.90
5086;DHT22;4715;51.660;7.082;2022-11-15T00:24:22;10.00;99.90
5086;DHT22;4715;51.660;7.082;2022-11-15T00:26:44;10.00;99.90
5086;DHT22;4715;51.660;7.082;2022-11-15T00:29:06;10.00;99.90
5086;DHT22;4715;51.660;7.082;2022-11-15T00:31:28;10.00;99.90
5086;DHT22;4715;51.660;7.082;2022-11-15T00:33:51;10.00;99.90
5086;DHT22;4715;51.660;7.082;2022-11-15T00:36:13;10.00;99.90
5086;DHT22;4715;51.660;7.082;2022-11-15T00:38:36;10.00;99.90
5086;DHT22;4715;51.660;7.082;2022-11-15T00:41:01;10.00;99.90
5086;DHT22;4715;51.660;7.082;2022-11-15T00:43:23;10.00;99.90
5086;DHT22;4715;51.660;7.082;2022-11-15T00:45:46;10.00;99.90
5086;DHT22;4715;51.660;7.082;2022-11-15T00:48:09;10.00;99.90
5086;DHT22;4715;51.660;7.082;2022-11-15T00:50:31;10.00;99.90
5086;DHT22;4715;51.660;7.082;2022-11-15T00:52:53;10.00;99.90
5086;DHT22;4715;51.660;7.082;2022-11-15T00:55:16;10.00;99.90
5086;DHT22;4715;51.660;7.082;2022-11-15T00:57:40;9.90;99.90
5086;DHT22;4715;51.660;7.082;2022-11-15T01:00:03;9.90;99.90
5086;DHT22;4715;51.660;7.082;2022-11-15T01:02:25;10.00;99.90
5086;DHT22;4715;51.660;7.082;2022-11-15T01:04:48;10.00;99.90
5086;DHT22;4715;51.660;7.082;2022-11-15T01:07:10;9.90;99.90
5086;DHT22;4715;51.660;7.082;2022-11-15T01:09:32;10.00;99.90
5086;DHT22;4715;51.660;7.082;2022-11-15T01:11:54;10.00;99.90
5086;DHT22;4715;51.660;7.082;2022-11-15T01:14:17;10.00;99.90
5086;DHT22;4715;51.660;7.082;2022-11-15T01:16:39;10.00;99.90
5086;DHT22;4715;51.660;7.082;2022-11-15T01:19:00;10.00;99.90
5086;DHT22;4715;51.660;7.082;2022-11-15T01:21:23;10.00;99.90
5086;DHT22;4715;51.660;7.082;2022-11-15T01:23:45;10.00;99.90
5086;DHT22;4715;51.660;7.082;2022-11-15T01:26:10;10.10;99.90
5086;DHT22;4715;51.660;7.082;2022-11-15T01:28:34;10.10;99.90
5086;DHT22;4715;51.660;7.082;2022-11-15T01:30:59;10.10;99.90
5086;DHT22;4715;51.660;7.082;2022-11-15T01:33:21;10.10;99.90
5086;DHT22;4715;51.660;7.082;2022-11-15T01:35:42;10.10;99.90
5086;DHT22;4715;51.660;7.082;2022-11-15T01:38:04;10.10;99.90
5086;DHT22;4715;51.660;7.082;2022-11-15T01:40:26;10.10;99.90
5086;DHT22;4715;51.660;7.082;2022-11-15T01:42:48;10.10;99.90
5086;DHT22;4715;51.660;7.082;2022-11-15T01:45:14;10.20;99.90
5086;DHT22;4715;51.660;7.082;2022-11-15T01:47:41;10.20;99.90
5086;DHT22;4715;51.660;7.082;2022-11-15T01:50:06;10.30;99.90
5086;DHT22;4715;51.660;7.082;2022-11-15T01:52:31;10.30;99.90
5086;DHT22;4715;51.660;7.082;2022-11-15T01:54:59;10.40;99.90
5086;DHT22;4715;51.660;7.082;2022-11-15T01:57:22;10.40;99.90
5086;DHT22;4715;51.660;7.082;2022-11-15T01:59:45;10.50;99.90
5086;DHT22;4715;51.660;7.082;2022-11-15T02:02:07;10.50;99.90
5086;DHT22;4715;51.660;7.082;2022-11-15T02:04:32;10.60;99.90
5086;DHT22;4715;51.660;7.082;2022-11-15T02:06:55;10.70;99.90
5086;DHT22;4715;51.660;7.082;2022-11-15T02:09:17;10.70;99.90
5086;DHT22;4715;51.660;7.082;2022-11-15T02:11:39;10.70;99.90
5086;DHT22;4715;51.660;7.082;2022-11-15T02:14:03;10.80;99.90
5086;DHT22;4715;51.660;7.082;2022-11-15T02:16:33;10.80;99.90
5086;DHT22;4715;51.660;7.082;2022-11-15T02:19:01;10.80;99.90
5086;DHT22;4715;51.660;7.082;2022-11-15T02:21:31;10.90;99.90
5086;DHT22;4715;51.660;7.082;2022-11-15T02:24:39;10.90;99.90
5086;DHT22;4715;51.660;7.082;2022-11-15T02:30:20;11.00;99.90
5086;DHT22;4715;51.660;7.082;2022-11-15T02:32:45;11.00;99.90
5086;DHT22;4715;51.660;7.082;2022-11-15T02:35:16;11.00;99.90
5086;DHT22;4715;51.660;7.082;2022-11-15T02:37:44;11.10;99.90
5086;DHT22;4715;51.660;7.082;2022-11-15T02:40:13;11.10;99.90
5086;DHT22;4715;51.660;7.082;2022-11-15T02:42:43;11.20;99.90
5086;DHT22;4715;51.660;7.082;2022-11-15T02:45:28;11.20;99.90
5086;DHT22;4715;51.660;7.082;2022-11-15T02:47:55;11.20;99.90
5086;DHT22;4715;51.660;7.082;2022-11-15T02:50:21;11.30;99.90
5086;DHT22;4715;51.660;7.082;2022-11-15T02:52:45;11.30;99.90
5086;DHT22;4715;51.660;7.082;2022-11-15T02:55:26;11.30;99.90
5086;DHT22;4715;51.660;7.082;2022-11-15T02:57:58;11.40;99.90
5086;DHT22;4715;51.660;7.082;2022-11-15T03:00:26;11.40;99.90
5086;DHT22;4715;51.660;7.082;2022-11-15T03:03:06;11.40;99.90
5086;DHT22;4715;51.660;7.082;2022-11-15T03:05:34;11.50;99.90
5086;DHT22;4715;51.660;7.082;2022-11-15T03:08:02;11.50;99.90
5086;DHT22;4715;51.660;7.082;2022-11-15T03:10:32;11.50;99.90
5086;DHT22;4715;51.660;7.082;2022-11-15T03:13:02;11.60;99.90
5086;DHT22;4715;51.660;7.082;2022-11-15T03:15:32;11.60;99.90
5086;DHT22;4715;51.660;7.082;2022-11-15T03:18:01;11.60;99.90
5086;DHT22;4715;51.660;7.082;2022-11-15T03:20:25;11.60;99.90
5086;DHT22;4715;51.660;7.082;2022-11-15T03:22:48;11.60;99.90
5086;DHT22;4715;51.660;7.082;2022-11-15T03:25:14;11.70;99.90
5086;DHT22;4715;51.660;7.082;2022-11-15T03:27:39;11.70;99.90
5086;DHT22;4715;51.660;7.082;2022-11-15T03:30:07;11.70;99.90
5086;DHT22;4715;51.660;7.082;2022-11-15T03:32:32;11.70;99.90
5086;DHT22;4715;51.660;7.082;2022-11-15T03:34:58;11.70;99.90
5086;DHT22;4715;51.660;7.082;2022-11-15T03:37:27;11.70;99.90
5086;DHT22;4715;51.660;7.082;2022-11-15T03:39:51;11.80;99.90
5086;DHT22;4715;51.660;7.082;2022-11-15T03:42:20;11.80;99.90
5086;DHT22;4715;51.660;7.082;2022-11-15T03:44:47;11.80;99.90
5086;DHT22;4715;51.660;7.082;2022-11-15T03:47:15;11.80;99.90
5086;DHT22;4715;51.660;7.082;2022-11-15T03:49:44;11.80;99.90
5086;DHT22;4715;51.660;7.082;2022-11-15T03:52:07;11.80;99.90
5086;DHT22;4715;51.660;7.082;2022-11-15T03:54:31;11.80;99.90
5086;DHT22;4715;51.660;7.082;2022-11-15T03:56:53;11.90;99.90
5086;DHT22;4715;51.660;7.082;2022-11-15T03:59:15;11.90;99.90
5086;DHT22;4715;51.660;7.082;2022-11-15T04:01:36;11.90;99.90
5086;DHT22;4715;51.660;7.082;2022-11-15T04:03:58;12.00;99.90
5086;DHT22;4715;51.660;7.082;2022-11-15T04:06:22;12.00;99.90
5086;DHT22;4715;51.660;7.082;2022-11-15T04:08:44;12.00;99.90
5086;DHT22;4715;51.660;7.082;2022-11-15T04:11:05;12.00;99.90
5086;DHT22;4715;51.660;7.082;2022-11-15T04:13:27;12.00;99.90
5086;DHT22;4715;51.660;7.082;2022-11-15T04:15:49;12.00;99.90
5086;DHT22;4715;51.660;7.082;2022-11-15T04:18:11;12.00;99.90
5086;DHT22;4715;51.660;7.082;2022-11-15T04:20:33;12.00;99.90
5086;DHT22;4715;51.660;7.082;2022-11-15T04:23:16;12.00;99.90
5086;DHT22;4715;51.660;7.082;2022-11-15T04:25:59;12.10;99.90
5086;DHT22;4715;51.660;7.082;2022-11-15T04:28:22;12.10;99.90
5086;DHT22;4715;51.660;7.082;2022-11-15T04:30:44;12.10;99.90
5086;DHT22;4715;51.660;7.082;2022-11-15T04:33:05;12.10;99.90
5086;DHT22;4715;51.660;7.082;2022-11-15T04:35:27;12.10;99.90
5086;DHT22;4715;51.660;7.082;2022-11-15T04:37:49;12.10;99.90
5086;DHT22;4715;51.660;7.082;2022-11-15T04:40:12;12.10;99.90
5086;DHT22;4715;51.660;7.082;2022-11-15T04:42:35;12.20;99.90
5086;DHT22;4715;51.660;7.082;2022-11-15T04:44:56;12.20;99.90
5086;DHT22;4715;51.660;7.082;2022-11-15T04:47:18;12.20;99.90
5086;DHT22;4715;51.660;7.082;2022-11-15T04:49:40;12.20;99.90
5086;DHT22;4715;51.660;7.082;2022-11-15T04:52:02;12.30;99.90
5086;DHT22;4715;51.660;7.082;2022-11-15T04:54:24;12.30;99.90
5086;DHT22;4715;51.660;7.082;2022-11-15T04:56:47;12.30;99.90
5086;DHT22;4715;51.660;7.082;2022-11-15T04:59:09;12.30;99.90
5086;DHT22;4715;51.660;7.082;2022-11-15T05:01:31;12.30;99.90
5086;DHT22;4715;51.660;7.082;2022-11-15T05:03:52;12.30;99.90
5086;DHT22;4715;51.660;7.082;2022-11-15T05:06:32;12.30;99.90
5086;DHT22;4715;51.660;7.082;2022-11-15T05:08:55;12.30;99.90
5086;DHT22;4715;51.660;7.082;2022-11-15T05:11:17;12.30;99.90
5086;DHT22;4715;51.660;7.082;2022-11-15T05:13:40;12.30;99.90
5086;DHT22;4715;51.660;7.082;2022-11-15T05:16:02;12.30;99.90
5086;DHT22;4715;51.660;7.082;2022-11-15T05:18:24;12.30;99.90
5086;DHT22;4715;51.660;7.082;2022-11-15T05:20:45;12.30;99.90
5086;DHT22;4715;51.660;7.082;2022-11-15T05:23:07;12.40;99.90
5086;DHT22;4715;51.660;7.082;2022-11-15T05:25:29;12.40;99.90
5086;DHT22;4715;51.660;7.082;2022-11-15T05:27:51;12.40;99.90
5086;DHT22;4715;51.660;7.082;2022-11-15T05:30:15;12.40;99.90
5086;DHT22;4715;51.660;7.082;2022-11-15T05:32:37;12.40;99.90
5086;DHT22;4715;51.660;7.082;2022-11-15T05:34:59;12.40;99.90
5086;DHT22;4715;51.660;7.082;2022-11-15T05:37:21;12.40;99.90
5086;DHT22;4715;51.660;7.082;2022-11-15T05:39:42;12.40;99.90
5086;DHT22;4715;51.660;7.082;2022-11-15T05:42:07;12.40;99.90
5086;DHT22;4715;51.660;7.082;2022-11-15T05:44:31;12.50;99.90
5086;DHT22;4715;51.660;7.082;2022-11-15T05:46:55;12.50;99.90
5086;DHT22;4715;51.660;7.082;2022-11-15T05:49:21;12.50;99.90
5086;DHT22;4715;51.660;7.082;2022-11-15T05:51:44;12.50;99.90
5086;DHT22;4715;51.660;7.082;2022-11-15T05:54:07;12.50;99.90
5086;DHT22;4715;51.660;7.082;2022-11-15T05:56:29;12.50;99.90
5086;DHT22;4715;51.660;7.082;2022-11-15T05:58:52;12.50;99.90
5086;DHT22;4715;51.660;7.082;2022-11-15T06:01:15;12.60;99.90
5086;DHT22;4715;51.660;7.082;2022-11-15T06:03:40;12.60;99.90
5086;DHT22;4715;51.660;7.082;2022-11-15T06:06:02;12.60;99.90
5086;DHT22;4715;51.660;7.082;2022-11-15T06:08:27;12.60;99.90
5086;DHT22;4715;51.660;7.082;2022-11-15T06:10:50;12.60;99.90
5086;DHT22;4715;51.660;7.082;2022-11-15T06:13:12;12.60;99.90
5086;DHT22;4715;51.660;7.082;2022-11-15T06:15:34;12.50;99.90
5086;DHT22;4715;51.660;7.082;2022-11-15T06:17:56;12.50;99.90
5086;DHT22;4715;51.660;7.082;2022-11-15T06:20:20;12.50;99.90
5086;DHT22;4715;51.660;7.082;2022-11-15T06:22:42;12.50;99.90
5086;DHT22;4715;51.660;7.082;2022-11-15T06:25:04;12.50;99.90
5086;DHT22;4715;51.660;7.082;2022-11-15T06:27:27;12.40;99.90
5086;DHT22;4715;51.660;7.082;2022-11-15T06:29:49;12.40;99.90
5086;DHT22;4715;51.660;7.082;2022-11-15T06:32:10;12.40;99.90
5086;DHT22;4715;51.660;7.082;2022-11-15T06:34:34;12.40;99.90
5086;DHT22;4715;51.660;7.082;2022-11-15T06:36:58;12.40;99.90
5086;DHT22;4715;51.660;7.082;2022-11-15T06:39:21;12.40;99.90
5086;DHT22;4715;51.660;7.082;2022-11-15T06:41:43;12.40;99.90
5086;DHT22;4715;51.660;7.082;2022-11-15T06:44:05;12.40;99.90
5086;DHT22;4715;51.660;7.082;2022-11-15T06:46:29;12.40;99.90
5086;DHT22;4715;51.660;7.082;2022-11-15T06:48:51;12.40;99.90
5086;DHT22;4715;51.660;7.082;2022-11-15T06:51:13;12.40;99.90
5086;DHT22;4715;51.660;7.082;2022-11-15T06:53:37;12.40;99.90
5086;DHT22;4715;51.660;7.082;2022-11-15T06:55:59;12.40;99.90
5086;DHT22;4715;51.660;7.082;2022-11-15T06:58:22;12.40;99.90
5086;DHT22;4715;51.660;7.082;2022-11-15T07:00:45;12.40;99.90
5086;DHT22;4715;51.660;7.082;2022-11-15T07:03:07;12.40;99.90
5086;DHT22;4715;51.660;7.082;2022-11-15T07:05:30;12.40;99.90
5086;DHT22;4715;51.660;7.082;2022-11-15T07:07:53;12.40;99.90
5086;DHT22;4715;51.660;7.082;2022-11-15T07:10:16;12.40;99.90
5086;DHT22;4715;51.660;7.082;2022-11-15T07:12:38;12.40;99.90
5086;DHT22;4715;51.660;7.082;2022-11-15T07:15:00;12.40;99.90
5086;DHT22;4715;51.660;7.082;2022-11-15T07:17:22;12.40;99.90
5086;DHT22;4715;51.660;7.082;2022-11-15T07:19:44;12.40;99.90
5086;DHT22;4715;51.660;7.082;2022-11-15T07:22:06;12.40;99.90
5086;DHT22;4715;51.660;7.082;2022-11-15T07:24:28;12.40;99.90
5086;DHT22;4715;51.660;7.082;2022-11-15T07:26:55;12.40;99.90
5086;DHT22;4715;51.660;7.082;2022-11-15T07:29:16;12.50;99.90
5086;DHT22;4715;51.660;7.082;2022-11-15T07:31:39;12.40;99.90
5086;DHT22;4715;51.660;7.082;2022-11-15T07:34:00;12.50;99.90
5086;DHT22;4715;51.660;7.082;2022-11-15T07:36:23;12.50;99.90
5086;DHT22;4715;51.660;7.082;2022-11-15T07:38:45;12.50;99.90
5086;DHT22;4715;51.660;7.082;2022-11-15T07:41:08;12.50;99.90
5086;DHT22;4715;51.660;7.082;2022-11-15T07:43:31;12.50;99.90
5086;DHT22;4715;51.660;7.082;2022-11-15T07:45:54;12.50;99.90
5086;DHT22;4715;51.660;7.082;2022-11-15T07:48:16;12.50;99.90
5086;DHT22;4715;51.660;7.082;2022-11-15T07:50:40;12.50;99.90
5086;DHT22;4715;51.660;7.082;2022-11-15T07:53:02;12.50;99.90
5086;DHT22;4715;51.660;7.082;2022-11-15T07:55:27;12.50;99.90
5086;DHT22;4715;51.660;7.082;2022-11-15T07:57:50;12.50;99.90
5086;DHT22;4715;51.660;7.082;2022-11-15T08:00:15;12.50;99.90
5086;DHT22;4715;51.660;7.082;2022-11-15T08:02:37;12.60;99.90
5086;DHT22;4715;51.660;7.082;2022-11-15T08:04:58;12.60;99.90
5086;DHT22;4715;51.660;7.082;2022-11-15T08:07:20;12.60;99.90
5086;DHT22;4715;51.660;7.082;2022-11-15T08:09:43;12.70;99.90
5086;DHT22;4715;51.660;7.082;2022-11-15T08:12:05;12.70;99.90
5086;DHT22;4715;51.660;7.082;2022-11-15T08:14:28;12.70;99.90
5086;DHT22;4715;51.660;7.082;2022-11-15T08:16:52;12.80;99.90
5086;DHT22;4715;51.660;7.082;2022-11-15T08:19:13;12.80;99.90
5086;DHT22;4715;51.660;7.082;2022-11-15T08:21:35;12.80;99.90
5086;DHT22;4715;51.660;7.082;2022-11-15T08:23:57;12.90;99.90
5086;DHT22;4715;51.660;7.082;2022-11-15T08:26:19;12.90;99.90
5086;DHT22;4715;51.660;7.082;2022-11-15T08:28:42;13.00;99.90
5086;DHT22;4715;51.660;7.082;2022-11-15T08:31:04;13.00;99.90
5086;DHT22;4715;51.660;7.082;2022-11-15T08:33:28;13.00;99.90
5086;DHT22;4715;51.660;7.082;2022-11-15T08:35:50;13.10;99.90
5086;DHT22;4715;51.660;7.082;2022-11-15T08:38:12;13.10;99.90
5086;DHT22;4715;51.660;7.082;2022-11-15T08:40:36;13.10;99.90
5086;DHT22;4715;51.660;7.082;2022-11-15T08:42:58;13.10;99.90
5086;DHT22;4715;51.660;7.082;2022-11-15T08:45:23;13.20;99.90
5086;DHT22;4715;51.660;7.082;2022-11-15T08:47:45;13.20;99.90
5086;DHT22;4715;51.660;7.082;2022-11-15T08:50:09;13.20;99.90
5086;DHT22;4715;51.660;7.082;2022-11-15T08:52:30;13.20;99.90
5086;DHT22;4715;51.660;7.082;2022-11-15T08:54:56;13.10;99.90
5086;DHT22;4715;51.660;7.082;2022-11-15T08:57:19;12.90;99.90
5086;DHT22;4715;51.660;7.082;2022-11-15T08:59:41;12.80;99.90
5086;DHT22;4715;51.660;7.082;2022-11-15T09:02:04;12.60;99.90
5086;DHT22;4715;51.660;7.082;2022-11-15T09:04:26;12.50;99.90
5086;DHT22;4715;51.660;7.082;2022-11-15T09:06:49;12.50;99.90
5086;DHT22;4715;51.660;7.082;2022-11-15T09:09:12;12.40;99.90
5086;DHT22;4715;51.660;7.082;2022-11-15T09:11:34;12.40;99.90
5086;DHT22;4715;51.660;7.082;2022-11-15T09:13:59;12.40;99.90
5086;DHT22;4715;51.660;7.082;2022-11-15T09:16:21;12.30;99.90
5086;DHT22;4715;51.660;7.082;2022-11-15T09:18:43;12.30;99.90
5086;DHT22;4715;51.660;7.082;2022-11-15T09:21:05;12.30;99.90
5086;DHT22;4715;51.660;7.082;2022-11-15T09:23:28;12.30;99.90
5086;DHT22;4715;51.660;7.082;2022-11-15T09:25:51;12.40;99.90
5086;DHT22;4715;51.660;7.082;2022-11-15T09:28:12;12.40;99.90
5086;DHT22;4715;51.660;7.082;2022-11-15T09:30:34;12.40;99.90
5086;DHT22;4715;51.660;7.082;2022-11-15T09:32:56;12.40;99.90
5086;DHT22;4715;51.660;7.082;2022-11-15T09:35:22;12.40;99.90
5086;DHT22;4715;51.660;7.082;2022-11-15T09:37:45;12.40;99.90
5086;DHT22;4715;51.660;7.082;2022-11-15T09:40:12;12.50;99.90
5086;DHT22;4715;51.660;7.082;2022-11-15T09:42:48;12.50;99.90
5086;DHT22;4715;51.660;7.082;2022-11-15T09:45:20;12.50;99.90
5086;DHT22;4715;51.660;7.082;2022-11-15T09:48:07;12.50;99.90
5086;DHT22;4715;51.660;7.082;2022-11-15T09:50:38;12.60;99.90
5086;DHT22;4715;51.660;7.082;2022-11-15T09:53:01;12.60;99.90
5086;DHT22;4715;51.660;7.082;2022-11-15T09:55:32;12.60;99.90
5086;DHT22;4715;51.660;7.082;2022-11-15T09:58:03;12.60;99.90
5086;DHT22;4715;51.660;7.082;2022-11-15T10:00:31;12.60;99.90
5086;DHT22;4715;51.660;7.082;2022-11-15T10:03:09;12.70;99.90
5086;DHT22;4715;51.660;7.082;2022-11-15T10:05:32;12.70;99.90
5086;DHT22;4715;51.660;7.082;2022-11-15T10:08:01;12.80;99.90
5086;DHT22;4715;51.660;7.082;2022-11-15T10:10:30;12.90;99.90
5086;DHT22;4715;51.660;7.082;2022-11-15T10:12:54;13.00;99.90
5086;DHT22;4715;51.660;7.082;2022-11-15T10:15:18;13.10;99.90
5086;DHT22;4715;51.660;7.082;2022-11-15T10:17:55;13.10;99.90
5086;DHT22;4715;51.660;7.082;2022-11-15T10:20:24;13.20;99.90
5086;DHT22;4715;51.660;7.082;2022-11-15T10:22:48;13.30;99.90
5086;DHT22;4715;51.660;7.082;2022-11-15T10:25:21;13.40;99.90
5086;DHT22;4715;51.660;7.082;2022-11-15T10:27:55;13.50;99.90
5086;DHT22;4715;51.660;7.082;2022-11-15T10:30:28;13.60;99.90
5086;DHT22;4715;51.660;7.082;2022-11-15T10:32:52;13.70;99.90
5086;DHT22;4715;51.660;7.082;2022-11-15T10:35:23;13.80;99.90
5086;DHT22;4715;51.660;7.082;2022-11-15T10:37:46;13.90;99.90
5086;DHT22;4715;51.660;7.082;2022-11-15T10:40:16;13.90;99.90
5086;DHT22;4715;51.660;7.082;2022-11-15T10:42:38;14.00;99.90
5086;DHT22;4715;51.660;7.082;2022-11-15T10:45:01;14.00;99.90
5086;DHT22;4715;51.660;7.082;2022-11-15T10:47:26;14.00;99.90
5086;DHT22;4715;51.660;7.082;2022-11-15T10:50:01;14.00;99.90
5086;DHT22;4715;51.660;7.082;2022-11-15T10:52:28;14.00;99.90
5086;DHT22;4715;51.660;7.082;2022-11-15T10:54:55;14.10;99.90
5086;DHT22;4715;51.660;7.082;2022-11-15T10:57:21;14.10;99.90
5086;DHT22;4715;51.660;7.082;2022-11-15T10:59:46;14.20;99.90
5086;DHT22;4715;51.660;7.082;2022-11-15T11:02:32;14.30;99.90
5086;DHT22;4715;51.660;7.082;2022-11-15T11:04:55;14.40;99.90
5086;DHT22;4715;51.660;7.082;2022-11-15T11:07:22;14.40;99.90
5086;DHT22;4715;51.660;7.082;2022-11-15T11:09:57;14.50;99.90
5086;DHT22;4715;51.660;7.082;2022-11-15T11:12:28;14.70;99.90
5086;DHT22;4715;51.660;7.082;2022-11-15T11:14:50;14.70;99.90
5086;DHT22;4715;51.660;7.082;2022-11-15T11:17:17;14.80;99.90
5086;DHT22;4715;51.660;7.082;2022-11-15T11:20:02;14.80;99.90
5086;DHT22;4715;51.660;7.082;2022-11-15T11:22:32;14.90;99.90
5086;DHT22;4715;51.660;7.082;2022-11-15T11:25:10;14.90;99.90
5086;DHT22;4715;51.660;7.082;2022-11-15T11:27:43;15.00;99.90
5086;DHT22;4715;51.660;7.082;2022-11-15T11:30:11;15.10;99.90
5086;DHT22;4715;51.660;7.082;2022-11-15T11:35:43;15.40;99.90
5086;DHT22;4715;51.660;7.082;2022-11-15T11:38:23;15.40;99.90
5086;DHT22;4715;51.660;7.082;2022-11-15T11:40:59;15.40;99.90
5086;DHT22;4715;51.660;7.082;2022-11-15T11:43:30;15.40;99.90
5086;DHT22;4715;51.660;7.082;2022-11-15T11:46:10;15.50;99.90
5086;DHT22;4715;51.660;7.082;2022-11-15T11:48:41;15.60;99.90
5086;DHT22;4715;51.660;7.082;2022-11-15T11:51:14;15.80;99.90
5086;DHT22;4715;51.660;7.082;2022-11-15T11:53:41;15.90;99.90
5086;DHT22;4715;51.660;7.082;2022-11-15T11:56:14;16.20;99.90
5086;DHT22;4715;51.660;7.082;2022-11-15T11:58:41;16.30;99.90
5086;DHT22;4715;51.660;7.082;2022-11-15T12:01:14;16.30;99.90
5086;DHT22;4715;51.660;7.082;2022-11-15T12:03:43;16.30;99.90
5086;DHT22;4715;51.660;7.082;2022-11-15T12:06:20;16.20;99.90
5086;DHT22;4715;51.660;7.082;2022-11-15T12:08:58;16.20;99.90
5086;DHT22;4715;51.660;7.082;2022-11-15T12:11:23;16.20;99.90
5086;DHT22;4715;51.660;7.082;2022-11-15T12:13:50;16.10;99.90
5086;DHT22;4715;51.660;7.082;2022-11-15T12:16:18;16.10;99.90
5086;DHT22;4715;51.660;7.082;2022-11-15T12:18:44;16.10;99.90
5086;DHT22;4715;51.660;7.082;2022-11-15T12:21:16;16.00;99.90
5086;DHT22;4715;51.660;7.082;2022-11-15T12:23:45;16.10;99.90
5086;DHT22;4715;51.660;7.082;2022-11-15T12:26:11;16.20;99.90
5086;DHT22;4715;51.660;7.082;2022-11-15T12:28:40;16.40;99.90
5086;DHT22;4715;51.660;7.082;2022-11-15T12:31:06;16.40;99.90
5086;DHT22;4715;51.660;7.082;2022-11-15T12:33:38;16.50;99.90
5086;DHT22;4715;51.660;7.082;2022-11-15T12:36:04;16.60;99.90
5086;DHT22;4715;51.660;7.082;2022-11-15T12:38:54;16.80;99.90
5086;DHT22;4715;51.660;7.082;2022-11-15T12:41:17;17.00;99.90
5086;DHT22;4715;51.660;7.082;2022-11-15T12:43:40;17.10;99.90
5086;DHT22;4715;51.660;7.082;2022-11-15T12:46:10;17.10;99.90
5086;DHT22;4715;51.660;7.082;2022-11-15T12:48:59;17.00;99.90
5086;DHT22;4715;51.660;7.082;2022-11-15T12:57:30;16.70;99.90
5086;DHT22;4715;51.660;7.082;2022-11-15T12:59:54;16.60;99.90
5086;DHT22;4715;51.660;7.082;2022-11-15T13:02:19;16.50;99.90
5086;DHT22;4715;51.660;7.082;2022-11-15T13:04:41;16.30;99.90
5086;DHT22;4715;51.660;7.082;2022-11-15T13:07:04;16.20;99.90
5086;DHT22;4715;51.660;7.082;2022-11-15T13:09:52;16.20;99.90
5086;DHT22;4715;51.660;7.082;2022-11-15T13:12:49;16.10;99.90
5086;DHT22;4715;51.660;7.082;2022-11-15T13:15:31;16.00;99.90
5086;DHT22;4715;51.660;7.082;2022-11-15T13:17:56;15.80;99.90
5086;DHT22;4715;51.660;7.082;2022-11-15T13:20:23;15.80;99.90
5086;DHT22;4715;51.660;7.082;2022-11-15T13:22:48;15.70;99.90
5086;DHT22;4715;51.660;7.082;2022-11-15T13:25:19;15.70;99.90
5086;DHT22;4715;51.660;7.082;2022-11-15T13:27:47;15.70;99.90
5086;DHT22;4715;51.660;7.082;2022-11-15T13:30:17;15.70;99.90
5086;DHT22;4715;51.660;7.082;2022-11-15T13:32:40;15.70;99.90
5086;DHT22;4715;51.660;7.082;2022-11-15T13:35:07;15.70;99.90
5086;DHT22;4715;51.660;7.082;2022-11-15T13:37:32;15.70;99.90
5086;DHT22;4715;51.660;7.082;2022-11-15T13:39:55;15.60;99.90
5086;DHT22;4715;51.660;7.082;2022-11-15T13:42:37;15.60;99.90
5086;DHT22;4715;51.660;7.082;2022-11-15T13:45:02;15.50;99.90
5086;DHT22;4715;51.660;7.082;2022-11-15T13:47:26;15.50;99.90
5086;DHT22;4715;51.660;7.082;2022-11-15T13:49:51;15.50;99.90
5086;DHT22;4715;51.660;7.082;2022-11-15T13:52:14;15.50;99.90
5086;DHT22;4715;51.660;7.082;2022-11-15T13:54:40;15.50;99.90
5086;DHT22;4715;51.660;7.082;2022-11-15T13:57:09;15.40;99.90
5086;DHT22;4715;51.660;7.082;2022-11-15T13:59:37;15.40;99.90
5086;DHT22;4715;51.660;7.082;2022-11-15T14:02:12;15.40;99.90
5086;DHT22;4715;51.660;7.082;2022-11-15T14:04:35;15.40;99.90
5086;DHT22;4715;51.660;7.082;2022-11-15T14:07:02;15.40;99.90
5086;DHT22;4715;51.660;7.082;2022-11-15T14:09:30;15.40;99.90
5086;DHT22;4715;51.660;7.082;2022-11-15T14:11:55;15.40;99.90
5086;DHT22;4715;51.660;7.082;2022-11-15T14:14:20;15.40;99.90
5086;DHT22;4715;51.660;7.082;2022-11-15T14:16:45;15.40;99.90
5086;DHT22;4715;51.660;7.082;2022-11-15T14:19:10;15.30;99.90
5086;DHT22;4715;51.660;7.082;2022-11-15T14:21:32;15.30;99.90
5086;DHT22;4715;51.660;7.082;2022-11-15T14:24:15;15.20;99.90
5086;DHT22;4715;51.660;7.082;2022-11-15T14:26:37;15.20;99.90
5086;DHT22;4715;51.660;7.082;2022-11-15T14:29:23;15.10;99.90
5086;DHT22;4715;51.660;7.082;2022-11-15T14:31:46;15.10;99.90
5086;DHT22;4715;51.660;7.082;2022-11-15T14:34:10;15.10;99.90
5086;DHT22;4715;51.660;7.082;2022-11-15T14:36:31;15.00;99.90
5086;DHT22;4715;51.660;7.082;2022-11-15T14:38:56;15.00;99.90
5086;DHT22;4715;51.660;7.082;2022-11-15T14:41:20;15.00;99.90
5086;DHT22;4715;51.660;7.082;2022-11-15T14:43:43;15.00;99.90
5086;DHT22;4715;51.660;7.082;2022-11-15T14:46:06;15.00;99.90
5086;DHT22;4715;51.660;7.082;2022-11-15T14:48:30;15.00;99.90
5086;DHT22;4715;51.660;7.082;2022-11-15T14:50:52;14.90;99.90
5086;DHT22;4715;51.660;7.082;2022-11-15T14:53:19;14.90;99.90
5086;DHT22;4715;51.660;7.082;2022-11-15T14:55:44;14.90;99.90
5086;DHT22;4715;51.660;7.082;2022-11-15T14:58:08;14.80;99.90
5086;DHT22;4715;51.660;7.082;2022-11-15T15:00:30;14.80;99.90
5086;DHT22;4715;51.660;7.082;2022-11-15T15:02:56;14.70;99.90
5086;DHT22;4715;51.660;7.082;2022-11-15T15:05:22;14.70;99.90
5086;DHT22;4715;51.660;7.082;2022-11-15T15:07:53;14.70;99.90
5086;DHT22;4715;51.660;7.082;2022-11-15T15:10:16;14.60;99.90
5086;DHT22;4715;51.660;7.082;2022-11-15T15:12:38;14.60;99.90
5086;DHT22;4715;51.660;7.082;2022-11-15T15:15:00;14.60;99.90
5086;DHT22;4715;51.660;7.082;2022-11-15T15:17:22;14.60;99.90
5086;DHT22;4715;51.660;7.082;2022-11-15T15:19:47;14.60;99.90
5086;DHT22;4715;51.660;7.082;2022-11-15T15:22:14;14.60;99.90
5086;DHT22;4715;51.660;7.082;2022-11-15T15:24:36;14.50;99.90
5086;DHT22;4715;51.660;7.082;2022-11-15T15:26:58;14.50;99.90
5086;DHT22;4715;51.660;7.082;2022-11-15T15:29:20;14.50;99.90
5086;DHT22;4715;51.660;7.082;2022-11-15T15:31:43;14.50;99.90
5086;DHT22;4715;51.660;7.082;2022-11-15T15:34:05;14.40;99.90
5086;DHT22;4715;51.660;7.082;2022-11-15T15:36:27;14.40;99.90
5086;DHT22;4715;51.660;7.082;2022-11-15T15:38:51;14.40;99.90
5086;DHT22;4715;51.660;7.082;2022-11-15T15:41:13;14.40;99.90
5086;DHT22;4715;51.660;7.082;2022-11-15T15:43:35;14.30;99.90
5086;DHT22;4715;51.660;7.082;2022-11-15T15:45:57;14.30;99.90
5086;DHT22;4715;51.660;7.082;2022-11-15T15:48:21;14.30;99.90
5086;DHT22;4715;51.660;7.082;2022-11-15T15:50:45;14.30;99.90
5086;DHT22;4715;51.660;7.082;2022-11-15T15:53:10;14.30;99.90
5086;DHT22;4715;51.660;7.082;2022-11-15T15:55:36;14.30;99.90
5086;DHT22;4715;51.660;7.082;2022-11-15T15:57:59;14.20;99.90
5086;DHT22;4715;51.660;7.082;2022-11-15T16:00:27;14.20;99.90
5086;DHT22;4715;51.660;7.082;2022-11-15T16:02:52;14.20;99.90